sensor_id;sensor_type;location;lat;lon;timestamp;P1;durP1;ratioP1;P2;durP2;ratioP2
2408;SDS011;8463;48.094;7.970;2023-05-07T00:01:14;3.17;;;2.50;;
2408;SDS011;8463;48.094;7.970;2023-05-07T00:03:40;2.57;;;2.20;;
2408;SDS011;8463;48.094;7.970;2023-05-07T00:06:10;3.90;;;2.50;;
2408;SDS011;8463;48.094;7.970;2023-05-07T00:08:37;3.63;;;2.90;;
2408;SDS011;8463;48.094;7.970;2023-05-07T00:11:03;3.83;;;3.10;;
2408;SDS011;8463;48.094;7.970;2023-05-07T00:13:29;2.80;;;2.60;;
2408;SDS011;8463;48.094;7.970;2023-05-07T00:16:00;2.90;;;2.20;;
2408;SDS011;8463;48.094;7.970;2023-05-07T00:18:26;3.60;;;2.10;;
2408;SDS011;8463;48.094;7.970;2023-05-07T00:20:58;2.97;;;2.67;;
2408;SDS011;8463;48.094;7.970;2023-05-07T00:23:29;2.47;;;2.27;;
2408;SDS011;8463;48.094;7.970;2023-05-07T00:25:55;2.40;;;2.20;;
2408;SDS011;8463;48.094;7.970;2023-05-07T00:28:21;2.60;;;2.30;;
2408;SDS011;8463;48.094;7.970;2023-05-07T00:30:47;4.37;;;2.93;;
2408;SDS011;8463;48.094;7.970;2023-05-07T00:33:12;2.60;;;2.10;;
2408;SDS011;8463;48.094;7.970;2023-05-07T00:35:38;3.83;;;2.60;;
2408;SDS011;8463;48.094;7.970;2023-05-07T00:38:03;3.50;;;2.70;;
2408;SDS011;8463;48.094;7.970;2023-05-07T00:40:29;3.83;;;2.50;;
2408;SDS011;8463;48.094;7.970;2023-05-07T00:42:57;2.50;;;2.30;;
2408;SDS011;8463;48.094;7.970;2023-05-07T00:45:28;2.10;;;2.00;;
2408;SDS011;8463;48.094;7.970;2023-05-07T00:47:54;3.03;;;2.50;;
2408;SDS011;8463;48.094;7.970;2023-05-07T00:50:28;3.03;;;2.53;;
2408;SDS011;8463;48.094;7.970;2023-05-07T00:52:55;5.17;;;2.50;;
2408;SDS011;8463;48.094;7.970;2023-05-07T00:55:21;4.03;;;3.30;;
2408;SDS011;8463;48.094;7.970;2023-05-07T00:57:47;2.63;;;2.43;;
2408;SDS011;8463;48.094;7.970;2023-05-07T01:00:16;2.40;;;2.13;;
2408;SDS011;8463;48.094;7.970;2023-05-07T01:02:43;3.33;;;2.50;;
2408;SDS011;8463;48.094;7.970;2023-05-07T01:05:09;3.20;;;2.10;;
2408;SDS011;8463;48.094;7.970;2023-05-07T01:07:40;3.33;;;3.10;;
2408;SDS011;8463;48.094;7.970;2023-05-07T01:10:07;3.70;;;2.10;;
2408;SDS011;8463;48.094;7.970;2023-05-07T01:12:34;3.73;;;2.30;;
2408;SDS011;8463;48.094;7.970;2023-05-07T01:15:01;2.77;;;2.57;;
2408;SDS011;8463;48.094;7.970;2023-05-07T01:17:28;5.23;;;2.60;;
2408;SDS011;8463;48.094;7.970;2023-05-07T01:19:53;2.70;;;2.50;;
2408;SDS011;8463;48.094;7.970;2023-05-07T01:22:31;2.30;;;2.10;;
2408;SDS011;8463;48.094;7.970;2023-05-07T01:25:04;2.90;;;2.07;;
2408;SDS011;8463;48.094;7.970;2023-05-07T01:27:36;2.70;;;2.50;;
2408;SDS011;8463;48.094;7.970;2023-05-07T01:30:03;3.13;;;2.57;;
2408;SDS011;8463;48.094;7.970;2023-05-07T01:33:04;2.50;;;2.30;;
2408;SDS011;8463;48.094;7.970;2023-05-07T01:35:43;2.23;;;1.93;;
2408;SDS011;8463;48.094;7.970;2023-05-07T01:38:12;2.10;;;2.00;;
2408;SDS011;8463;48.094;7.970;2023-05-07T01:40:38;3.30;;;1.97;;
2408;SDS011;8463;48.094;7.970;2023-05-07T01:43:06;3.80;;;1.90;;
2408;SDS011;8463;48.094;7.970;2023-05-07T01:45:32;2.10;;;1.97;;
2408;SDS011;8463;48.094;7.970;2023-05-07T01:48:00;2.77;;;2.37;;
2408;SDS011;8463;48.094;7.970;2023-05-07T01:50:26;2.20;;;1.97;;
2408;SDS011;8463;48.094;7.970;2023-05-07T01:52:52;2.43;;;2.23;;
2408;SDS011;8463;48.094;7.970;2023-05-07T01:55:18;3.53;;;2.30;;
2408;SDS011;8463;48.094;7.970;2023-05-07T01:57:44;3.50;;;2.43;;
2408;SDS011;8463;48.094;7.970;2023-05-07T02:00:10;3.50;;;2.73;;
2408;SDS011;8463;48.094;7.970;2023-05-07T02:02:35;2.67;;;2.37;;
2408;SDS011;8463;48.094;7.970;2023-05-07T02:05:03;2.40;;;2.20;;
2408;SDS011;8463;48.094;7.970;2023-05-07T02:07:29;2.67;;;2.37;;
2408;SDS011;8463;48.094;7.970;2023-05-07T02:09:56;2.43;;;2.23;;
2408;SDS011;8463;48.094;7.970;2023-05-07T02:12:25;2.70;;;2.40;;
2408;SDS011;8463;48.094;7.970;2023-05-07T02:14:50;2.50;;;2.30;;
2408;SDS011;8463;48.094;7.970;2023-05-07T02:17:16;3.17;;;2.83;;
2408;SDS011;8463;48.094;7.970;2023-05-07T02:19:42;2.33;;;2.13;;
2408;SDS011;8463;48.094;7.970;2023-05-07T02:22:09;2.77;;;2.47;;
2408;SDS011;8463;48.094;7.970;2023-05-07T02:24:34;2.70;;;1.80;;
2408;SDS011;8463;48.094;7.970;2023-05-07T02:27:00;2.73;;;2.10;;
2408;SDS011;8463;48.094;7.970;2023-05-07T02:29:27;2.60;;;2.40;;
2408;SDS011;8463;48.094;7.970;2023-05-07T02:31:52;3.33;;;2.33;;
2408;SDS011;8463;48.094;7.970;2023-05-07T02:34:18;3.43;;;2.53;;
2408;SDS011;8463;48.094;7.970;2023-05-07T02:36:47;2.17;;;2.07;;
2408;SDS011;8463;48.094;7.970;2023-05-07T02:39:13;3.50;;;2.37;;
2408;SDS011;8463;48.094;7.970;2023-05-07T02:41:39;2.77;;;2.30;;
2408;SDS011;8463;48.094;7.970;2023-05-07T02:44:05;2.80;;;2.60;;
2408;SDS011;8463;48.094;7.970;2023-05-07T02:46:31;2.90;;;2.70;;
2408;SDS011;8463;48.094;7.970;2023-05-07T02:49:02;3.17;;;2.97;;
2408;SDS011;8463;48.094;7.970;2023-05-07T02:51:29;3.03;;;2.73;;
2408;SDS011;8463;48.094;7.970;2023-05-07T02:53:57;2.73;;;2.13;;
2408;SDS011;8463;48.094;7.970;2023-05-07T02:56:25;3.43;;;2.60;;
2408;SDS011;8463;48.094;7.970;2023-05-07T02:58:51;2.60;;;2.40;;
2408;SDS011;8463;48.094;7.970;2023-05-07T03:01:16;2.60;;;2.40;;
2408;SDS011;8463;48.094;7.970;2023-05-07T03:03:42;2.57;;;2.37;;
2408;SDS011;8463;48.094;7.970;2023-05-07T03:06:08;2.20;;;2.03;;
2408;SDS011;8463;48.094;7.970;2023-05-07T03:08:33;4.33;;;2.50;;
2408;SDS011;8463;48.094;7.970;2023-05-07T03:10:59;2.10;;;1.90;;
2408;SDS011;8463;48.094;7.970;2023-05-07T03:13:30;2.77;;;2.20;;
2408;SDS011;8463;48.094;7.970;2023-05-07T03:15:56;5.80;;;2.60;;
2408;SDS011;8463;48.094;7.970;2023-05-07T03:18:22;5.63;;;2.70;;
2408;SDS011;8463;48.094;7.970;2023-05-07T03:20:47;3.27;;;2.80;;
2408;SDS011;8463;48.094;7.970;2023-05-07T03:23:19;3.03;;;2.80;;
2408;SDS011;8463;48.094;7.970;2023-05-07T03:25:45;3.70;;;2.30;;
2408;SDS011;8463;48.094;7.970;2023-05-07T03:28:10;3.63;;;2.13;;
2408;SDS011;8463;48.094;7.970;2023-05-07T03:30:36;4.07;;;2.83;;
2408;SDS011;8463;48.094;7.970;2023-05-07T03:33:03;3.17;;;2.73;;
2408;SDS011;8463;48.094;7.970;2023-05-07T03:35:29;3.70;;;2.70;;
2408;SDS011;8463;48.094;7.970;2023-05-07T03:37:55;3.70;;;2.80;;
2408;SDS011;8463;48.094;7.970;2023-05-07T03:40:21;2.70;;;2.30;;
2408;SDS011;8463;48.094;7.970;2023-05-07T03:42:47;2.17;;;1.97;;
2408;SDS011;8463;48.094;7.970;2023-05-07T03:45:12;3.93;;;2.90;;
2408;SDS011;8463;48.094;7.970;2023-05-07T03:47:40;3.67;;;2.43;;
2408;SDS011;8463;48.094;7.970;2023-05-07T03:50:05;3.80;;;2.70;;
2408;SDS011;8463;48.094;7.970;2023-05-07T03:52:31;4.63;;;2.60;;
2408;SDS011;8463;48.094;7.970;2023-05-07T03:54:57;2.77;;;2.50;;
2408;SDS011;8463;48.094;7.970;2023-05-07T03:57:23;2.87;;;2.20;;
2408;SDS011;8463;48.094;7.970;2023-05-07T03:59:51;2.57;;;2.30;;
2408;SDS011;8463;48.094;7.970;2023-05-07T04:02:17;4.20;;;2.67;;
2408;SDS011;8463;48.094;7.970;2023-05-07T04:04:42;2.53;;;2.33;;
2408;SDS011;8463;48.094;7.970;2023-05-07T04:07:08;2.10;;;2.00;;
2408;SDS011;8463;48.094;7.970;2023-05-07T04:09:34;2.97;;;2.77;;
2408;SDS011;8463;48.094;7.970;2023-05-07T04:12:00;2.77;;;2.57;;
2408;SDS011;8463;48.094;7.970;2023-05-07T04:14:26;2.10;;;1.90;;
2408;SDS011;8463;48.094;7.970;2023-05-07T04:16:58;4.57;;;2.10;;
2408;SDS011;8463;48.094;7.970;2023-05-07T04:19:24;2.87;;;2.43;;
2408;SDS011;8463;48.094;7.970;2023-05-07T04:21:50;2.80;;;2.60;;
2408;SDS011;8463;48.094;7.970;2023-05-07T04:24:16;2.80;;;2.60;;
2408;SDS011;8463;48.094;7.970;2023-05-07T04:26:41;3.03;;;2.10;;
2408;SDS011;8463;48.094;7.970;2023-05-07T04:29:09;3.20;;;2.53;;
2408;SDS011;8463;48.094;7.970;2023-05-07T04:31:35;3.13;;;2.60;;
2408;SDS011;8463;48.094;7.970;2023-05-07T04:34:00;2.40;;;2.17;;
2408;SDS011;8463;48.094;7.970;2023-05-07T04:36:26;3.20;;;2.50;;
2408;SDS011;8463;48.094;7.970;2023-05-07T04:38:52;4.07;;;3.07;;
2408;SDS011;8463;48.094;7.970;2023-05-07T04:41:18;3.77;;;2.40;;
2408;SDS011;8463;48.094;7.970;2023-05-07T04:43:44;3.23;;;2.60;;
2408;SDS011;8463;48.094;7.970;2023-05-07T04:46:10;3.13;;;2.60;;
2408;SDS011;8463;48.094;7.970;2023-05-07T04:48:38;7.03;;;2.60;;
2408;SDS011;8463;48.094;7.970;2023-05-07T04:51:03;2.77;;;2.47;;
2408;SDS011;8463;48.094;7.970;2023-05-07T04:53:29;3.27;;;2.83;;
2408;SDS011;8463;48.094;7.970;2023-05-07T04:55:58;2.97;;;2.77;;
2408;SDS011;8463;48.094;7.970;2023-05-07T04:58:23;3.00;;;2.70;;
2408;SDS011;8463;48.094;7.970;2023-05-07T05:00:49;2.60;;;2.40;;
2408;SDS011;8463;48.094;7.970;2023-05-07T05:03:15;6.10;;;2.50;;
2408;SDS011;8463;48.094;7.970;2023-05-07T05:05:40;4.07;;;2.33;;
2408;SDS011;8463;48.094;7.970;2023-05-07T05:08:07;2.83;;;2.63;;
2408;SDS011;8463;48.094;7.970;2023-05-07T05:10:33;2.70;;;2.50;;
2408;SDS011;8463;48.094;7.970;2023-05-07T05:13:01;3.40;;;3.10;;
2408;SDS011;8463;48.094;7.970;2023-05-07T05:15:29;3.33;;;3.00;;
2408;SDS011;8463;48.094;7.970;2023-05-07T05:17:55;2.60;;;2.40;;
2408;SDS011;8463;48.094;7.970;2023-05-07T05:20:22;3.13;;;2.83;;
2408;SDS011;8463;48.094;7.970;2023-05-07T05:22:48;2.60;;;2.40;;
2408;SDS011;8463;48.094;7.970;2023-05-07T05:25:13;3.77;;;2.50;;
2408;SDS011;8463;48.094;7.970;2023-05-07T05:27:39;2.77;;;2.57;;
2408;SDS011;8463;48.094;7.970;2023-05-07T05:30:05;5.60;;;2.87;;
2408;SDS011;8463;48.094;7.970;2023-05-07T05:32:33;3.13;;;2.40;;
2408;SDS011;8463;48.094;7.970;2023-05-07T05:34:58;5.17;;;3.50;;
2408;SDS011;8463;48.094;7.970;2023-05-07T05:37:25;6.63;;;3.10;;
2408;SDS011;8463;48.094;7.970;2023-05-07T05:39:54;2.97;;;2.67;;
2408;SDS011;8463;48.094;7.970;2023-05-07T05:42:19;5.10;;;2.77;;
2408;SDS011;8463;48.094;7.970;2023-05-07T05:44:45;2.83;;;2.63;;
2408;SDS011;8463;48.094;7.970;2023-05-07T05:47:11;3.90;;;2.50;;
2408;SDS011;8463;48.094;7.970;2023-05-07T05:49:36;2.73;;;2.53;;
2408;SDS011;8463;48.094;7.970;2023-05-07T05:52:02;4.03;;;2.70;;
2408;SDS011;8463;48.094;7.970;2023-05-07T05:54:28;2.77;;;2.57;;
2408;SDS011;8463;48.094;7.970;2023-05-07T05:56:53;3.10;;;2.23;;
2408;SDS011;8463;48.094;7.970;2023-05-07T05:59:19;2.50;;;2.17;;
2408;SDS011;8463;48.094;7.970;2023-05-07T06:01:47;3.63;;;3.33;;
2408;SDS011;8463;48.094;7.970;2023-05-07T06:04:13;4.33;;;2.60;;
2408;SDS011;8463;48.094;7.970;2023-05-07T06:06:38;3.23;;;3.03;;
2408;SDS011;8463;48.094;7.970;2023-05-07T06:09:06;3.67;;;3.17;;
2408;SDS011;8463;48.094;7.970;2023-05-07T06:11:31;2.90;;;2.67;;
2408;SDS011;8463;48.094;7.970;2023-05-07T06:14:00;3.60;;;2.80;;
2408;SDS011;8463;48.094;7.970;2023-05-07T06:16:26;3.23;;;2.93;;
2408;SDS011;8463;48.094;7.970;2023-05-07T06:18:51;2.90;;;2.70;;
2408;SDS011;8463;48.094;7.970;2023-05-07T06:21:17;3.30;;;2.73;;
2408;SDS011;8463;48.094;7.970;2023-05-07T06:23:43;3.33;;;2.40;;
2408;SDS011;8463;48.094;7.970;2023-05-07T06:26:08;3.10;;;2.80;;
2408;SDS011;8463;48.094;7.970;2023-05-07T06:28:34;2.80;;;2.60;;
2408;SDS011;8463;48.094;7.970;2023-05-07T06:33:57;3.17;;;2.70;;
2408;SDS011;8463;48.094;7.970;2023-05-07T06:36:24;2.90;;;2.50;;
2408;SDS011;8463;48.094;7.970;2023-05-07T06:38:50;5.60;;;3.43;;
2408;SDS011;8463;48.094;7.970;2023-05-07T06:41:15;2.77;;;2.57;;
2408;SDS011;8463;48.094;7.970;2023-05-07T06:43:41;3.60;;;2.80;;
2408;SDS011;8463;48.094;7.970;2023-05-07T06:46:08;3.23;;;3.03;;
2408;SDS011;8463;48.094;7.970;2023-05-07T06:48:34;2.60;;;2.40;;
2408;SDS011;8463;48.094;7.970;2023-05-07T06:51:00;3.57;;;2.87;;
2408;SDS011;8463;48.094;7.970;2023-05-07T06:53:26;3.80;;;3.50;;
2408;SDS011;8463;48.094;7.970;2023-05-07T06:55:53;3.43;;;3.13;;
2408;SDS011;8463;48.094;7.970;2023-05-07T06:58:19;3.37;;;3.07;;
2408;SDS011;8463;48.094;7.970;2023-05-07T07:00:44;3.20;;;2.90;;
2408;SDS011;8463;48.094;7.970;2023-05-07T07:03:11;4.00;;;2.60;;
2408;SDS011;8463;48.094;7.970;2023-05-07T07:05:43;3.20;;;2.90;;
2408;SDS011;8463;48.094;7.970;2023-05-07T07:08:16;5.67;;;3.57;;
2408;SDS011;8463;48.094;7.970;2023-05-07T07:10:42;2.83;;;2.63;;
2408;SDS011;8463;48.094;7.970;2023-05-07T07:13:08;3.43;;;3.13;;
2408;SDS011;8463;48.094;7.970;2023-05-07T07:15:40;4.20;;;2.93;;
2408;SDS011;8463;48.094;7.970;2023-05-07T07:18:06;4.47;;;3.43;;
2408;SDS011;8463;48.094;7.970;2023-05-07T07:20:32;3.63;;;3.10;;
2408;SDS011;8463;48.094;7.970;2023-05-07T07:22:57;3.70;;;3.00;;
2408;SDS011;8463;48.094;7.970;2023-05-07T07:25:29;3.50;;;3.20;;
2408;SDS011;8463;48.094;7.970;2023-05-07T07:27:54;2.50;;;2.30;;
2408;SDS011;8463;48.094;7.970;2023-05-07T07:30:20;3.07;;;2.80;;
2408;SDS011;8463;48.094;7.970;2023-05-07T07:32:46;3.20;;;3.00;;
2408;SDS011;8463;48.094;7.970;2023-05-07T07:35:12;2.63;;;2.43;;
2408;SDS011;8463;48.094;7.970;2023-05-07T07:37:38;5.10;;;3.37;;
2408;SDS011;8463;48.094;7.970;2023-05-07T07:40:03;3.47;;;3.20;;
2408;SDS011;8463;48.094;7.970;2023-05-07T07:42:29;3.90;;;2.73;;
2408;SDS011;8463;48.094;7.970;2023-05-07T07:44:55;3.00;;;2.80;;
2408;SDS011;8463;48.094;7.970;2023-05-07T07:47:25;2.90;;;2.70;;
2408;SDS011;8463;48.094;7.970;2023-05-07T07:49:50;4.17;;;3.13;;
2408;SDS011;8463;48.094;7.970;2023-05-07T07:52:16;4.33;;;3.60;;
2408;SDS011;8463;48.094;7.970;2023-05-07T07:54:49;3.53;;;3.23;;
2408;SDS011;8463;48.094;7.970;2023-05-07T07:57:14;3.17;;;2.97;;
2408;SDS011;8463;48.094;7.970;2023-05-07T07:59:40;3.30;;;3.00;;
2408;SDS011;8463;48.094;7.970;2023-05-07T08:02:10;3.10;;;2.90;;
2408;SDS011;8463;48.094;7.970;2023-05-07T08:04:38;3.67;;;2.80;;
2408;SDS011;8463;48.094;7.970;2023-05-07T08:07:04;5.33;;;3.03;;
2408;SDS011;8463;48.094;7.970;2023-05-07T08:09:30;2.97;;;2.77;;
2408;SDS011;8463;48.094;7.970;2023-05-07T08:11:57;3.40;;;3.10;;
2408;SDS011;8463;48.094;7.970;2023-05-07T08:14:23;3.17;;;2.97;;
2408;SDS011;8463;48.094;7.970;2023-05-07T08:16:49;2.97;;;2.57;;
2408;SDS011;8463;48.094;7.970;2023-05-07T08:19:14;5.50;;;3.37;;
2408;SDS011;8463;48.094;7.970;2023-05-07T08:21:40;2.67;;;2.47;;
2408;SDS011;8463;48.094;7.970;2023-05-07T08:24:10;3.00;;;2.80;;
2408;SDS011;8463;48.094;7.970;2023-05-07T08:26:36;3.60;;;2.70;;
2408;SDS011;8463;48.094;7.970;2023-05-07T08:29:04;3.37;;;2.67;;
2408;SDS011;8463;48.094;7.970;2023-05-07T08:31:29;3.20;;;2.87;;
2408;SDS011;8463;48.094;7.970;2023-05-07T08:33:59;3.17;;;2.83;;
2408;SDS011;8463;48.094;7.970;2023-05-07T08:36:25;2.57;;;2.40;;
2408;SDS011;8463;48.094;7.970;2023-05-07T08:38:51;4.70;;;3.67;;
2408;SDS011;8463;48.094;7.970;2023-05-07T08:41:18;3.13;;;2.83;;
2408;SDS011;8463;48.094;7.970;2023-05-07T08:43:49;3.30;;;3.10;;
2408;SDS011;8463;48.094;7.970;2023-05-07T08:46:19;2.80;;;2.60;;
2408;SDS011;8463;48.094;7.970;2023-05-07T08:48:49;7.47;;;2.83;;
2408;SDS011;8463;48.094;7.970;2023-05-07T08:51:22;3.00;;;2.80;;
2408;SDS011;8463;48.094;7.970;2023-05-07T08:53:48;2.87;;;2.57;;
2408;SDS011;8463;48.094;7.970;2023-05-07T08:56:15;5.40;;;3.13;;
2408;SDS011;8463;48.094;7.970;2023-05-07T08:58:45;3.80;;;3.27;;
2408;SDS011;8463;48.094;7.970;2023-05-07T09:01:14;6.90;;;3.67;;
2408;SDS011;8463;48.094;7.970;2023-05-07T09:03:41;5.10;;;3.60;;
2408;SDS011;8463;48.094;7.970;2023-05-07T09:06:10;3.80;;;3.50;;
2408;SDS011;8463;48.094;7.970;2023-05-07T09:08:37;3.87;;;3.37;;
2408;SDS011;8463;48.094;7.970;2023-05-07T09:11:03;4.23;;;3.40;;
2408;SDS011;8463;48.094;7.970;2023-05-07T09:13:29;5.17;;;3.63;;
2408;SDS011;8463;48.094;7.970;2023-05-07T09:15:54;5.50;;;4.20;;
2408;SDS011;8463;48.094;7.970;2023-05-07T09:18:21;6.80;;;5.17;;
2408;SDS011;8463;48.094;7.970;2023-05-07T09:20:50;5.03;;;4.17;;
2408;SDS011;8463;48.094;7.970;2023-05-07T09:23:16;4.07;;;3.50;;
2408;SDS011;8463;48.094;7.970;2023-05-07T09:25:42;5.10;;;3.67;;
2408;SDS011;8463;48.094;7.970;2023-05-07T09:28:07;4.67;;;4.27;;
2408;SDS011;8463;48.094;7.970;2023-05-07T09:30:35;7.70;;;3.80;;
2408;SDS011;8463;48.094;7.970;2023-05-07T09:33:02;3.93;;;3.63;;
2408;SDS011;8463;48.094;7.970;2023-05-07T09:35:29;4.03;;;3.73;;
2408;SDS011;8463;48.094;7.970;2023-05-07T09:37:57;3.60;;;3.30;;
2408;SDS011;8463;48.094;7.970;2023-05-07T09:40:31;6.43;;;4.70;;
2408;SDS011;8463;48.094;7.970;2023-05-07T09:43:15;4.60;;;4.20;;
2408;SDS011;8463;48.094;7.970;2023-05-07T09:45:40;4.37;;;3.97;;
2408;SDS011;8463;48.094;7.970;2023-05-07T09:48:06;5.50;;;4.23;;
2408;SDS011;8463;48.094;7.970;2023-05-07T09:50:35;4.50;;;4.10;;
2408;SDS011;8463;48.094;7.970;2023-05-07T09:53:05;4.90;;;4.30;;
2408;SDS011;8463;48.094;7.970;2023-05-07T09:55:31;5.53;;;5.00;;
2408;SDS011;8463;48.094;7.970;2023-05-07T09:57:57;5.60;;;5.10;;
2408;SDS011;8463;48.094;7.970;2023-05-07T10:00:30;4.30;;;3.90;;
2408;SDS011;8463;48.094;7.970;2023-05-07T10:02:57;6.13;;;4.47;;
2408;SDS011;8463;48.094;7.970;2023-05-07T10:05:28;4.33;;;4.00;;
2408;SDS011;8463;48.094;7.970;2023-05-07T10:07:54;5.97;;;5.40;;
2408;SDS011;8463;48.094;7.970;2023-05-07T10:10:25;4.60;;;4.20;;
2408;SDS011;8463;48.094;7.970;2023-05-07T10:12:52;6.87;;;4.70;;
2408;SDS011;8463;48.094;7.970;2023-05-07T10:15:19;4.63;;;4.23;;
2408;SDS011;8463;48.094;7.970;2023-05-07T10:17:47;5.63;;;3.77;;
2408;SDS011;8463;48.094;7.970;2023-05-07T10:20:14;4.57;;;4.17;;
2408;SDS011;8463;48.094;7.970;2023-05-07T10:22:41;5.30;;;4.27;;
2408;SDS011;8463;48.094;7.970;2023-05-07T10:25:18;4.93;;;4.43;;
2408;SDS011;8463;48.094;7.970;2023-05-07T10:27:55;4.07;;;3.67;;
2408;SDS011;8463;48.094;7.970;2023-05-07T10:33:01;4.40;;;4.10;;
2408;SDS011;8463;48.094;7.970;2023-05-07T10:35:31;4.83;;;4.30;;
2408;SDS011;8463;48.094;7.970;2023-05-07T10:38:03;5.23;;;4.73;;
2408;SDS011;8463;48.094;7.970;2023-05-07T10:40:30;6.80;;;3.73;;
2408;SDS011;8463;48.094;7.970;2023-05-07T10:43:03;5.17;;;3.90;;
2408;SDS011;8463;48.094;7.970;2023-05-07T10:45:30;3.77;;;3.47;;
2408;SDS011;8463;48.094;7.970;2023-05-07T10:48:13;6.90;;;3.87;;
2408;SDS011;8463;48.094;7.970;2023-05-07T10:50:43;4.43;;;3.63;;
2408;SDS011;8463;48.094;7.970;2023-05-07T10:55:48;4.33;;;3.93;;
2408;SDS011;8463;48.094;7.970;2023-05-07T10:58:24;3.33;;;2.90;;
2408;SDS011;8463;48.094;7.970;2023-05-07T11:01:00;3.60;;;3.30;;
2408;SDS011;8463;48.094;7.970;2023-05-07T11:03:27;3.70;;;3.10;;
2408;SDS011;8463;48.094;7.970;2023-05-07T11:06:12;5.73;;;4.47;;
2408;SDS011;8463;48.094;7.970;2023-05-07T11:11:18;4.47;;;4.07;;
2408;SDS011;8463;48.094;7.970;2023-05-07T11:13:47;5.23;;;4.20;;
2408;SDS011;8463;48.094;7.970;2023-05-07T11:16:16;5.30;;;4.80;;
2408;SDS011;8463;48.094;7.970;2023-05-07T11:19:01;5.57;;;5.07;;
2408;SDS011;8463;48.094;7.970;2023-05-07T11:21:42;5.17;;;4.67;;
2408;SDS011;8463;48.094;7.970;2023-05-07T11:24:10;6.17;;;4.83;;
2408;SDS011;8463;48.094;7.970;2023-05-07T11:26:47;6.53;;;4.97;;
2408;SDS011;8463;48.094;7.970;2023-05-07T11:31:43;4.57;;;4.17;;
2408;SDS011;8463;48.094;7.970;2023-05-07T11:34:08;4.13;;;3.80;;
2408;SDS011;8463;48.094;7.970;2023-05-07T11:36:41;4.80;;;4.30;;
2408;SDS011;8463;48.094;7.970;2023-05-07T11:41:57;4.70;;;4.30;;
2408;SDS011;8463;48.094;7.970;2023-05-07T11:44:23;5.10;;;4.60;;
2408;SDS011;8463;48.094;7.970;2023-05-07T11:46:49;4.40;;;4.03;;
2408;SDS011;8463;48.094;7.970;2023-05-07T11:49:15;4.53;;;4.10;;
2408;SDS011;8463;48.094;7.970;2023-05-07T11:51:41;3.70;;;3.40;;
2408;SDS011;8463;48.094;7.970;2023-05-07T11:54:09;3.77;;;3.47;;
2408;SDS011;8463;48.094;7.970;2023-05-07T11:56:36;3.90;;;3.47;;
2408;SDS011;8463;48.094;7.970;2023-05-07T11:59:04;4.20;;;3.80;;
2408;SDS011;8463;48.094;7.970;2023-05-07T12:01:30;4.90;;;3.90;;
2408;SDS011;8463;48.094;7.970;2023-05-07T12:04:00;6.37;;;4.37;;
2408;SDS011;8463;48.094;7.970;2023-05-07T12:06:28;5.10;;;4.70;;
2408;SDS011;8463;48.094;7.970;2023-05-07T12:08:54;3.83;;;3.53;;
2408;SDS011;8463;48.094;7.970;2023-05-07T12:11:24;4.57;;;4.17;;
2408;SDS011;8463;48.094;7.970;2023-05-07T12:13:56;4.73;;;4.23;;
2408;SDS011;8463;48.094;7.970;2023-05-07T12:16:22;4.20;;;3.80;;
2408;SDS011;8463;48.094;7.970;2023-05-07T12:18:48;4.57;;;4.17;;
2408;SDS011;8463;48.094;7.970;2023-05-07T12:21:18;4.27;;;3.90;;
2408;SDS011;8463;48.094;7.970;2023-05-07T12:23:46;13.33;;;6.30;;
2408;SDS011;8463;48.094;7.970;2023-05-07T12:26:21;4.40;;;3.57;;
2408;SDS011;8463;48.094;7.970;2023-05-07T12:28:47;5.00;;;4.50;;
2408;SDS011;8463;48.094;7.970;2023-05-07T12:31:14;3.97;;;3.67;;
2408;SDS011;8463;48.094;7.970;2023-05-07T12:33:40;4.83;;;3.80;;
2408;SDS011;8463;48.094;7.970;2023-05-07T12:36:06;3.70;;;3.40;;
2408;SDS011;8463;48.094;7.970;2023-05-07T12:38:35;3.80;;;3.50;;
2408;SDS011;8463;48.094;7.970;2023-05-07T12:41:04;3.63;;;3.37;;
2408;SDS011;8463;48.094;7.970;2023-05-07T12:43:33;3.03;;;2.83;;
2408;SDS011;8463;48.094;7.970;2023-05-07T12:46:06;3.17;;;2.83;;
2408;SDS011;8463;48.094;7.970;2023-05-07T12:48:32;3.13;;;2.40;;
2408;SDS011;8463;48.094;7.970;2023-05-07T12:50:59;2.83;;;2.50;;
2408;SDS011;8463;48.094;7.970;2023-05-07T12:53:26;2.50;;;2.30;;
2408;SDS011;8463;48.094;7.970;2023-05-07T12:56:01;5.93;;;2.90;;
2408;SDS011;8463;48.094;7.970;2023-05-07T12:58:28;2.73;;;2.53;;
2408;SDS011;8463;48.094;7.970;2023-05-07T13:00:56;3.00;;;2.70;;
2408;SDS011;8463;48.094;7.970;2023-05-07T13:03:26;4.83;;;3.13;;
2408;SDS011;8463;48.094;7.970;2023-05-07T13:05:55;4.90;;;3.07;;
2408;SDS011;8463;48.094;7.970;2023-05-07T13:08:28;3.80;;;3.23;;
2408;SDS011;8463;48.094;7.970;2023-05-07T13:10:56;4.57;;;3.70;;
2408;SDS011;8463;48.094;7.970;2023-05-07T13:13:34;3.20;;;2.90;;
2408;SDS011;8463;48.094;7.970;2023-05-07T13:16:01;3.93;;;3.63;;
2408;SDS011;8463;48.094;7.970;2023-05-07T13:18:28;3.27;;;3.07;;
2408;SDS011;8463;48.094;7.970;2023-05-07T13:20:58;3.67;;;3.40;;
2408;SDS011;8463;48.094;7.970;2023-05-07T13:23:26;3.77;;;3.37;;
2408;SDS011;8463;48.094;7.970;2023-05-07T13:25:54;4.80;;;3.73;;
2408;SDS011;8463;48.094;7.970;2023-05-07T13:28:24;4.40;;;3.40;;
2408;SDS011;8463;48.094;7.970;2023-05-07T13:30:49;3.80;;;3.40;;
2408;SDS011;8463;48.094;7.970;2023-05-07T13:33:17;3.97;;;3.33;;
2408;SDS011;8463;48.094;7.970;2023-05-07T13:35:45;3.30;;;3.00;;
2408;SDS011;8463;48.094;7.970;2023-05-07T13:38:14;4.13;;;3.73;;
2408;SDS011;8463;48.094;7.970;2023-05-07T13:40:40;3.83;;;3.33;;
2408;SDS011;8463;48.094;7.970;2023-05-07T13:43:06;3.50;;;2.70;;
2408;SDS011;8463;48.094;7.970;2023-05-07T13:45:32;8.30;;;3.03;;
2408;SDS011;8463;48.094;7.970;2023-05-07T13:47:58;3.57;;;3.27;;
2408;SDS011;8463;48.094;7.970;2023-05-07T13:50:30;3.83;;;3.03;;
2408;SDS011;8463;48.094;7.970;2023-05-07T13:52:55;4.90;;;3.20;;
2408;SDS011;8463;48.094;7.970;2023-05-07T13:55:21;4.70;;;4.10;;
2408;SDS011;8463;48.094;7.970;2023-05-07T13:58:02;3.80;;;3.50;;
2408;SDS011;8463;48.094;7.970;2023-05-07T14:00:36;3.93;;;3.63;;
2408;SDS011;8463;48.094;7.970;2023-05-07T14:03:07;7.10;;;4.80;;
2408;SDS011;8463;48.094;7.970;2023-05-07T14:05:33;3.73;;;3.40;;
2408;SDS011;8463;48.094;7.970;2023-05-07T14:07:58;3.80;;;3.43;;
2408;SDS011;8463;48.094;7.970;2023-05-07T14:10:24;4.37;;;3.97;;
2408;SDS011;8463;48.094;7.970;2023-05-07T14:12:50;3.57;;;3.27;;
2408;SDS011;8463;48.094;7.970;2023-05-07T14:15:17;4.30;;;3.90;;
2408;SDS011;8463;48.094;7.970;2023-05-07T14:17:43;4.47;;;4.07;;
2408;SDS011;8463;48.094;7.970;2023-05-07T14:20:10;4.87;;;3.93;;
2408;SDS011;8463;48.094;7.970;2023-05-07T14:22:37;4.30;;;3.70;;
2408;SDS011;8463;48.094;7.970;2023-05-07T14:25:03;5.10;;;3.40;;
2408;SDS011;8463;48.094;7.970;2023-05-07T14:27:28;5.27;;;3.97;;
2408;SDS011;8463;48.094;7.970;2023-05-07T14:29:56;4.63;;;3.33;;
2408;SDS011;8463;48.094;7.970;2023-05-07T14:32:28;4.27;;;3.97;;
2408;SDS011;8463;48.094;7.970;2023-05-07T14:34:54;4.10;;;3.80;;
2408;SDS011;8463;48.094;7.970;2023-05-07T14:37:19;4.47;;;4.07;;
2408;SDS011;8463;48.094;7.970;2023-05-07T14:39:45;3.83;;;3.57;;
2408;SDS011;8463;48.094;7.970;2023-05-07T14:42:11;4.40;;;4.00;;
2408;SDS011;8463;48.094;7.970;2023-05-07T14:44:37;3.57;;;3.23;;
2408;SDS011;8463;48.094;7.970;2023-05-07T14:47:08;3.90;;;3.20;;
2408;SDS011;8463;48.094;7.970;2023-05-07T14:49:34;3.50;;;3.20;;
2408;SDS011;8463;48.094;7.970;2023-05-07T14:52:00;3.40;;;3.20;;
2408;SDS011;8463;48.094;7.970;2023-05-07T14:54:26;3.33;;;3.03;;
2408;SDS011;8463;48.094;7.970;2023-05-07T14:56:54;4.00;;;3.60;;
2408;SDS011;8463;48.094;7.970;2023-05-07T14:59:20;3.73;;;3.43;;
2408;SDS011;8463;48.094;7.970;2023-05-07T15:01:49;4.03;;;3.73;;
2408;SDS011;8463;48.094;7.970;2023-05-07T15:04:17;4.60;;;3.50;;
2408;SDS011;8463;48.094;7.970;2023-05-07T15:06:43;3.83;;;3.10;;
2408;SDS011;8463;48.094;7.970;2023-05-07T15:09:12;4.73;;;3.07;;
2408;SDS011;8463;48.094;7.970;2023-05-07T15:11:37;3.43;;;3.13;;
2408;SDS011;8463;48.094;7.970;2023-05-07T15:14:05;2.90;;;2.60;;
2408;SDS011;8463;48.094;7.970;2023-05-07T15:16:31;3.97;;;3.67;;
2408;SDS011;8463;48.094;7.970;2023-05-07T15:18:57;3.83;;;3.50;;
2408;SDS011;8463;48.094;7.970;2023-05-07T15:21:23;3.57;;;2.53;;
2408;SDS011;8463;48.094;7.970;2023-05-07T15:23:51;3.13;;;2.90;;
2408;SDS011;8463;48.094;7.970;2023-05-07T15:26:17;2.47;;;2.27;;
2408;SDS011;8463;48.094;7.970;2023-05-07T15:28:43;3.40;;;2.60;;
2408;SDS011;8463;48.094;7.970;2023-05-07T15:31:09;5.20;;;2.97;;
2408;SDS011;8463;48.094;7.970;2023-05-07T15:33:35;3.10;;;2.80;;